Impacts METAR Board INFO
IDs:

KSFO - San Francisco Intl, CA, US

Updated at: 0850 UTC 19 Nov 2017
Potential Impact None Slight Moderate High
Time18/20Z 18/21Z 18/22Z 18/23Z 19/00Z 19/01Z 19/02Z 19/03Z 19/04Z 19/05Z 19/06Z 19/07Z 19/08Z
VIS10 10 10 10 10 10 10 10 10 10 10 10 10
CIG-- -- -- -- 200 200 200 200 200 -- -- -- --
CoverFEWFEWSCTSCTBKNBKNBKNBKNBKNSCTFEWCLRCLR
FltCatVFRVFRVFRVFRVFRVFRVFRVFRVFRVFRVFRVFRVFR
WX--------------------------
WDir00360027028029027026001900320
WSpd0 0 3 0 10 7 6 6 5 0 4 0 3
WGst-- -- -- -- -- -- -- -- -- -- -- -- --
Raw hourly METARs
KSFO 181956Z 00000KT 10SM FEW200 15/03 A3022 RMK AO2 SLP231 T01500028
KSFO 182056Z 00000KT 10SM FEW200 16/03 A3018 RMK AO2 SLP219 T01560033 58020
KSFO 182156Z 36003KT 10SM SCT200 16/03 A3017 RMK AO2 SLP216 T01610028
KSFO 182256Z 00000KT 10SM SCT200 16/06 A3015 RMK AO2 SLP209 T01560061
KSFO 182356Z 27010KT 10SM BKN200 16/04 A3014 RMK AO2 SLP207 T01560044 10167 20128 56012
KSFO 190056Z 28007KT 10SM BKN200 14/05 A3014 RMK AO2 SLP206 T01390050
KSFO 190156Z 29006KT 10SM BKN200 13/06 A3014 RMK AO2 SLP206 T01280056
KSFO 190256Z 27006KT 10SM BKN200 12/04 A3016 RMK AO2 SLP211 T01220044 53004
KSFO 190356Z 26005KT 10SM BKN200 12/06 A3016 RMK AO2 SLP213 T01220061
KSFO 190456Z 00000KT 10SM SCT200 12/06 A3016 RMK AO2 SLP214 T01170056
KSFO 190556Z 19004KT 10SM FEW200 11/05 A3016 RMK AO2 SLP213 T01060050 10156 20106 50002
KSFO 190656Z 00000KT 10SM CLR 11/04 A3018 RMK AO2 SLP219 T01060044
KSFO 190756Z 32003KT 10SM CLR 10/05 A3017 RMK AO2 SLP216 T01000050 401670061